Time;durP1;ratioP1;P1;durP2;ratioP2;P2;SDS_P1;SDS_P2;PMS_P1;PMS_P2;Temp;Humidity;BMP_temperature;BMP_pressure;BME280_temperature;BME280_humidity;BME280_pressure;Samples;Min_cycle;Max_cycle;Signal;HPM_P1;HPM_P2
2022/07/16 00:02:12;;;;;;;0.10;0.10;;;;;;;;;;5070928;28;20265;-67
2022/07/16 00:04:38;;;;;;;0.10;0.10;;;;;;;;;;5082365;28;20233;-70
2022/07/16 00:07:04;;;;;;;0.10;0.10;;;;;;;;;;5071075;28;20255;-67
2022/07/16 00:09:31;;;;;;;0.10;0.10;;;;;;;;;;5082567;28;20277;-68
2022/07/16 00:11:57;;;;;;;0.00;0.00;;;;;;;;;;5070743;28;20249;-67
2022/07/16 00:14:25;;;;;;;0.03;0.03;;;;;;;;;;5082274;28;20294;-67
2022/07/16 00:16:51;;;;;;;0.10;0.10;;;;;;;;;;5070698;28;20240;-68
2022/07/16 00:19:18;;;;;;;0.10;0.10;;;;;;;;;;5082329;28;20275;-68
2022/07/16 00:21:44;;;;;;;0.10;0.10;;;;;;;;;;5070682;28;20252;-68
2022/07/16 00:24:11;;;;;;;0.03;0.03;;;;;;;;;;5081727;28;20200;-67
2022/07/16 00:26:37;;;;;;;0.10;0.10;;;;;;;;;;5070691;28;20248;-67
2022/07/16 00:29:04;;;;;;;0.00;0.00;;;;;;;;;;5081993;28;20211;-68
2022/07/16 00:31:32;;;;;;;0.10;0.10;;;;;;;;;;5070901;28;20240;-68
2022/07/16 00:33:58;;;;;;;0.10;0.10;;;;;;;;;;5081752;28;20224;-67
2022/07/16 00:36:24;;;;;;;0.08;0.08;;;;;;;;;;5070989;28;20240;-68
2022/07/16 00:38:50;;;;;;;0.10;0.10;;;;;;;;;;5081502;28;20391;-67
2022/07/16 00:41:17;;;;;;;0.00;0.00;;;;;;;;;;5070814;28;20490;-67
2022/07/16 00:43:47;;;;;;;0.10;0.10;;;;;;;;;;5081574;28;20277;-68
2022/07/16 00:46:13;;;;;;;0.00;0.00;;;;;;;;;;5071784;28;20291;-67
2022/07/16 00:48:41;;;;;;;0.10;0.10;;;;;;;;;;5085608;28;20276;-68
2022/07/16 00:51:07;;;;;;;0.10;0.10;;;;;;;;;;5075047;28;20248;-67
2022/07/16 00:53:35;;;;;;;0.00;0.00;;;;;;;;;;5085228;28;20228;-69
2022/07/16 00:56:01;;;;;;;0.08;0.08;;;;;;;;;;5075358;28;20248;-68
2022/07/16 00:58:28;;;;;;;0.00;0.00;;;;;;;;;;5085219;28;20515;-69
2022/07/16 01:00:54;;;;;;;0.05;0.05;;;;;;;;;;5074911;28;20235;-68
2022/07/16 01:03:20;;;;;;;0.10;0.10;;;;;;;;;;5084900;28;20192;-68
2022/07/16 01:05:48;;;;;;;0.10;0.10;;;;;;;;;;5074879;28;20325;-69
2022/07/16 01:08:15;;;;;;;0.10;0.10;;;;;;;;;;5084841;28;20286;-68
2022/07/16 01:10:41;;;;;;;0.10;0.10;;;;;;;;;;5074475;28;20311;-68
2022/07/16 01:13:08;;;;;;;0.10;0.10;;;;;;;;;;5084553;28;20236;-69
2022/07/16 01:15:34;;;;;;;0.03;0.03;;;;;;;;;;5074699;28;20249;-68
2022/07/16 01:18:01;;;;;;;0.10;0.10;;;;;;;;;;5084372;28;20234;-69
2022/07/16 01:20:27;;;;;;;0.10;0.10;;;;;;;;;;5074611;28;20256;-68
2022/07/16 01:22:55;;;;;;;1.05;1.05;;;;;;;;;;5084418;28;20503;-70
2022/07/16 01:25:22;;;;;;;0.10;0.10;;;;;;;;;;5074676;28;20211;-68
2022/07/16 01:27:51;;;;;;;0.10;0.10;;;;;;;;;;5084121;28;20203;-67
2022/07/16 01:30:17;;;;;;;0.10;0.10;;;;;;;;;;5074457;28;20244;-69
2022/07/16 01:32:43;;;;;;;0.10;0.10;;;;;;;;;;5083977;28;20287;-68
2022/07/16 01:35:10;;;;;;;0.10;0.10;;;;;;;;;;5074454;28;20206;-68
2022/07/16 01:37:36;;;;;;;0.10;0.10;;;;;;;;;;5084085;28;20500;-68
2022/07/16 01:40:03;;;;;;;0.10;0.10;;;;;;;;;;5084958;28;20234;-68
2022/07/16 01:42:31;;;;;;;0.10;0.10;;;;;;;;;;5056616;28;20282;-67
2022/07/16 01:44:57;;;;;;;0.10;0.10;;;;;;;;;;5085015;28;20218;-68
2022/07/16 01:47:24;;;;;;;0.03;0.03;;;;;;;;;;5073238;28;20261;-68
2022/07/16 01:49:50;;;;;;;0.10;0.10;;;;;;;;;;5084639;28;20204;-66
2022/07/16 01:52:17;;;;;;;0.03;0.03;;;;;;;;;;5073208;28;20319;-67
2022/07/16 01:54:44;;;;;;;0.05;0.05;;;;;;;;;;5084456;28;20227;-67
2022/07/16 01:57:11;;;;;;;0.05;0.05;;;;;;;;;;5072546;28;20312;-67
2022/07/16 01:59:39;;;;;;;0.10;0.10;;;;;;;;;;5083843;28;20271;-68
2022/07/16 02:02:05;;;;;;;0.10;0.10;;;;;;;;;;5072720;28;20257;-67
2022/07/16 02:04:32;;;;;;;0.00;0.00;;;;;;;;;;5084583;28;20221;-68
2022/07/16 02:06:58;;;;;;;0.10;0.10;;;;;;;;;;5072739;28;20242;-69
2022/07/16 02:09:24;;;;;;;0.03;0.03;;;;;;;;;;5084349;28;20213;-68
2022/07/16 02:11:51;;;;;;;0.05;0.05;;;;;;;;;;5072748;28;20482;-68
2022/07/16 02:14:17;;;;;;;0.03;0.03;;;;;;;;;;5084199;28;20237;-68
2022/07/16 02:16:45;;;;;;;0.10;0.10;;;;;;;;;;5072805;28;20305;-68
2022/07/16 02:19:12;;;;;;;0.10;0.10;;;;;;;;;;5083854;28;20211;-68
2022/07/16 02:21:38;;;;;;;0.00;0.00;;;;;;;;;;5072637;28;20444;-68
2022/07/16 02:24:04;;;;;;;0.10;0.10;;;;;;;;;;5083953;28;20206;-68
2022/07/16 02:26:31;;;;;;;0.10;0.10;;;;;;;;;;5072452;28;20290;-68
2022/07/16 02:28:57;;;;;;;0.10;0.10;;;;;;;;;;5083690;28;20275;-67
2022/07/16 02:31:24;;;;;;;0.10;0.10;;;;;;;;;;5072532;28;20243;-68
2022/07/16 02:33:51;;;;;;;0.03;0.03;;;;;;;;;;5083541;28;20298;-68
2022/07/16 02:36:18;;;;;;;0.10;0.10;;;;;;;;;;5072729;28;20262;-67
2022/07/16 02:38:44;;;;;;;0.00;0.00;;;;;;;;;;5083338;28;20203;-67
2022/07/16 02:41:10;;;;;;;0.10;0.10;;;;;;;;;;5072625;28;20314;-68
2022/07/16 02:43:37;;;;;;;0.10;0.10;;;;;;;;;;5083167;28;20209;-68
2022/07/16 02:46:03;;;;;;;0.10;0.10;;;;;;;;;;5072652;28;20247;-68
2022/07/16 02:48:29;;;;;;;0.00;0.00;;;;;;;;;;5083062;28;20206;-67
2022/07/16 02:50:57;;;;;;;0.10;0.10;;;;;;;;;;5072618;28;20245;-68
2022/07/16 02:53:23;;;;;;;0.10;0.10;;;;;;;;;;5082637;28;20242;-68
2022/07/16 02:55:50;;;;;;;0.10;0.10;;;;;;;;;;5072571;28;20245;-68
2022/07/16 02:58:16;;;;;;;0.10;0.10;;;;;;;;;;5082676;28;20209;-68
2022/07/16 03:00:43;;;;;;;0.10;0.10;;;;;;;;;;5072508;28;20243;-67
2022/07/16 03:03:09;;;;;;;0.10;0.10;;;;;;;;;;5082621;28;20277;-68
2022/07/16 03:05:36;;;;;;;0.10;0.10;;;;;;;;;;5072756;28;20251;-67
2022/07/16 03:08:05;;;;;;;0.10;0.10;;;;;;;;;;5082564;28;20211;-67
2022/07/16 03:10:31;;;;;;;0.10;0.10;;;;;;;;;;5072477;28;20242;-67
2022/07/16 03:12:57;;;;;;;0.10;0.10;;;;;;;;;;5082229;28;20274;-67
2022/07/16 03:15:24;;;;;;;0.10;0.10;;;;;;;;;;5072397;28;20248;-69
2022/07/16 03:17:50;;;;;;;0.10;0.10;;;;;;;;;;5081880;28;20277;-69
2022/07/16 03:20:16;;;;;;;0.10;0.10;;;;;;;;;;5072543;28;20225;-67
2022/07/16 03:22:43;;;;;;;0.10;0.10;;;;;;;;;;5081701;28;20280;-68
2022/07/16 03:25:11;;;;;;;0.10;0.10;;;;;;;;;;5072431;28;20206;-68
2022/07/16 03:27:37;;;;;;;0.10;0.10;;;;;;;;;;5082038;28;20474;-67
2022/07/16 03:30:04;;;;;;;0.10;0.10;;;;;;;;;;5082732;28;20282;-67
2022/07/16 03:32:30;;;;;;;0.10;0.10;;;;;;;;;;5071268;28;20239;-68
2022/07/16 03:34:56;;;;;;;0.10;0.10;;;;;;;;;;5082709;28;20229;-68
2022/07/16 03:37:23;;;;;;;0.10;0.10;;;;;;;;;;5070980;28;20303;-68
2022/07/16 03:39:49;;;;;;;0.10;0.10;;;;;;;;;;5082656;28;20238;-69
2022/07/16 03:42:17;;;;;;;0.10;0.10;;;;;;;;;;5070878;28;20246;-69
2022/07/16 03:44:43;;;;;;;0.10;0.10;;;;;;;;;;5082386;28;20202;-68
2022/07/16 03:47:09;;;;;;;0.03;0.03;;;;;;;;;;5070908;28;20306;-67
2022/07/16 03:49:36;;;;;;;0.10;0.10;;;;;;;;;;5082212;28;20206;-67
2022/07/16 03:52:02;;;;;;;0.03;0.03;;;;;;;;;;5070755;28;20301;-68
2022/07/16 03:54:28;;;;;;;0.10;0.10;;;;;;;;;;5082465;28;20294;-67
2022/07/16 03:56:55;;;;;;;0.10;0.10;;;;;;;;;;5070629;28;20446;-70
2022/07/16 03:59:22;;;;;;;0.08;0.08;;;;;;;;;;5082008;28;20206;-67
2022/07/16 04:01:49;;;;;;;0.10;0.10;;;;;;;;;;5070769;28;20245;-68
2022/07/16 04:04:15;;;;;;;0.10;0.10;;;;;;;;;;5081865;28;20222;-68
2022/07/16 04:06:41;;;;;;;0.10;0.10;;;;;;;;;;5070704;28;20274;-67
2022/07/16 04:09:08;;;;;;;0.10;0.10;;;;;;;;;;5081908;28;20227;-68
2022/07/16 04:11:34;;;;;;;0.10;0.10;;;;;;;;;;5070735;28;20328;-68
2022/07/16 04:14:00;;;;;;;0.10;0.10;;;;;;;;;;5081719;28;20234;-68
2022/07/16 04:16:28;;;;;;;0.10;0.10;;;;;;;;;;5070789;28;20247;-68
2022/07/16 04:18:54;;;;;;;0.03;0.03;;;;;;;;;;5081628;28;20239;-68
2022/07/16 04:21:20;;;;;;;0.10;0.10;;;;;;;;;;5072227;28;20246;-67
2022/07/16 04:23:47;;;;;;;0.07;0.07;;;;;;;;;;5086014;28;20214;-68
2022/07/16 04:26:13;;;;;;;0.00;0.00;;;;;;;;;;5075113;28;20249;-69
2022/07/16 04:28:39;;;;;;;0.00;0.00;;;;;;;;;;5085855;28;20222;-68
2022/07/16 04:31:06;;;;;;;0.10;0.10;;;;;;;;;;5075393;28;20505;-67
2022/07/16 04:33:33;;;;;;;0.10;0.10;;;;;;;;;;5085466;28;20207;-69
2022/07/16 04:36:02;;;;;;;0.07;0.07;;;;;;;;;;5075021;28;20250;-68
2022/07/16 04:38:28;;;;;;;0.10;0.10;;;;;;;;;;5085572;28;20207;-68
2022/07/16 04:40:55;;;;;;;0.00;0.00;;;;;;;;;;5075118;28;20248;-68
2022/07/16 04:43:21;;;;;;;0.00;0.00;;;;;;;;;;5085207;28;20203;-68
2022/07/16 04:45:47;;;;;;;0.00;0.00;;;;;;;;;;5075132;28;20252;-68
2022/07/16 04:48:14;;;;;;;0.10;0.10;;;;;;;;;;5085175;28;20397;-68
2022/07/16 04:50:41;;;;;;;0.10;0.10;;;;;;;;;;5074935;28;20300;-70
2022/07/16 04:53:08;;;;;;;0.10;0.10;;;;;;;;;;5084763;28;20436;-69
2022/07/16 04:55:34;;;;;;;0.03;0.03;;;;;;;;;;5075225;28;20250;-68
2022/07/16 04:58:01;;;;;;;0.10;0.10;;;;;;;;;;5085059;28;20275;-68
2022/07/16 05:00:27;;;;;;;0.10;0.10;;;;;;;;;;5075256;28;20310;-68
2022/07/16 05:02:59;;;;;;;0.10;0.10;;;;;;;;;;5084609;28;20373;-69
2022/07/16 05:05:30;;;;;;;0.10;0.10;;;;;;;;;;5074854;28;20324;-67
2022/07/16 05:07:57;;;;;;;0.10;0.10;;;;;;;;;;5084578;28;20397;-66
2022/07/16 05:10:24;;;;;;;0.10;0.10;;;;;;;;;;5074882;28;20572;-67
2022/07/16 05:12:50;;;;;;;0.10;0.10;;;;;;;;;;5084553;28;20208;-69
2022/07/16 05:15:19;;;;;;;0.10;0.10;;;;;;;;;;5074880;28;20221;-67
2022/07/16 05:17:46;;;;;;;0.10;0.10;;;;;;;;;;5084465;28;20544;-68
2022/07/16 05:20:12;;;;;;;0.10;0.10;;;;;;;;;;5074948;28;20211;-69
2022/07/16 05:22:39;;;;;;;0.10;0.10;;;;;;;;;;5084375;28;20275;-69
2022/07/16 05:25:07;;;;;;;0.10;0.10;;;;;;;;;;5083346;28;20199;-68
2022/07/16 05:27:34;;;;;;;0.10;0.10;;;;;;;;;;5083965;28;20217;-67
2022/07/16 05:30:00;;;;;;;0.03;0.03;;;;;;;;;;5085361;28;20363;-68
2022/07/16 05:32:26;;;;;;;0.10;0.10;;;;;;;;;;5073553;28;20437;-68
2022/07/16 05:34:53;;;;;;;0.10;0.10;;;;;;;;;;5085329;28;20223;-69
2022/07/16 05:37:19;;;;;;;0.03;0.03;;;;;;;;;;5073549;28;20390;-68
2022/07/16 05:39:46;;;;;;;0.10;0.10;;;;;;;;;;5084882;28;20213;-68
2022/07/16 05:42:13;;;;;;;0.10;0.10;;;;;;;;;;5073527;28;20242;-68
2022/07/16 05:44:40;;;;;;;0.10;0.10;;;;;;;;;;5085184;28;20391;-68
2022/07/16 05:47:06;;;;;;;0.10;0.10;;;;;;;;;;5073362;28;20302;-68
2022/07/16 05:49:33;;;;;;;0.10;0.10;;;;;;;;;;5084702;28;20206;-69
2022/07/16 05:51:59;;;;;;;0.10;0.10;;;;;;;;;;5073196;28;20238;-68
2022/07/16 05:54:25;;;;;;;0.10;0.10;;;;;;;;;;5084461;28;20227;-68
2022/07/16 05:56:52;;;;;;;0.10;0.10;;;;;;;;;;5073078;28;20239;-69
2022/07/16 05:59:19;;;;;;;0.10;0.10;;;;;;;;;;5084682;28;20204;-69
2022/07/16 06:01:46;;;;;;;0.00;0.00;;;;;;;;;;5073195;28;20245;-69
2022/07/16 06:04:12;;;;;;;0.10;0.10;;;;;;;;;;5084429;28;20212;-68
2022/07/16 06:06:39;;;;;;;0.10;0.10;;;;;;;;;;5073123;28;20239;-69
2022/07/16 06:09:05;;;;;;;0.10;0.10;;;;;;;;;;5084256;28;20214;-67
2022/07/16 06:11:31;;;;;;;0.00;0.00;;;;;;;;;;5072892;28;20257;-69
2022/07/16 06:13:58;;;;;;;0.00;0.00;;;;;;;;;;5084162;28;20203;-69
2022/07/16 06:16:25;;;;;;;0.03;0.03;;;;;;;;;;5073267;28;20594;-68
2022/07/16 06:18:52;;;;;;;0.10;0.10;;;;;;;;;;5083924;28;20338;-69
2022/07/16 06:21:18;;;;;;;0.10;0.10;;;;;;;;;;5073283;28;20429;-69
2022/07/16 06:23:44;;;;;;;0.10;0.10;;;;;;;;;;5083651;28;20274;-68
2022/07/16 06:26:11;;;;;;;0.10;0.10;;;;;;;;;;5073125;28;20240;-68
2022/07/16 06:28:37;;;;;;;0.00;0.00;;;;;;;;;;5083698;28;20203;-67
2022/07/16 06:31:03;;;;;;;0.00;0.00;;;;;;;;;;5073285;28;20294;-69
2022/07/16 06:33:31;;;;;;;0.10;0.10;;;;;;;;;;5083542;28;20212;-69
2022/07/16 06:35:57;;;;;;;0.10;0.10;;;;;;;;;;5073105;28;20506;-67
2022/07/16 06:38:24;;;;;;;0.00;0.00;;;;;;;;;;5083184;28;20210;-67
2022/07/16 06:40:50;;;;;;;0.03;0.03;;;;;;;;;;5072952;28;20244;-68
2022/07/16 06:43:16;;;;;;;0.00;0.00;;;;;;;;;;5082930;28;20231;-68
2022/07/16 06:45:43;;;;;;;0.10;0.10;;;;;;;;;;5072602;28;20257;-68
2022/07/16 06:48:10;;;;;;;0.10;0.10;;;;;;;;;;5082786;28;20203;-68
2022/07/16 06:50:37;;;;;;;0.10;0.10;;;;;;;;;;5073065;28;20242;-68
2022/07/16 06:53:04;;;;;;;0.07;0.07;;;;;;;;;;5082820;28;20209;-68
2022/07/16 06:55:30;;;;;;;0.03;0.03;;;;;;;;;;5073163;28;20324;-68
2022/07/16 06:57:57;;;;;;;0.00;0.00;;;;;;;;;;5082639;28;20270;-68
2022/07/16 07:00:23;;;;;;;0.10;0.10;;;;;;;;;;5073186;28;20222;-69
2022/07/16 07:02:49;;;;;;;0.10;0.10;;;;;;;;;;5082491;28;20447;-68
2022/07/16 07:05:16;;;;;;;0.00;0.00;;;;;;;;;;5072963;28;20207;-69
2022/07/16 07:07:43;;;;;;;0.10;0.10;;;;;;;;;;5082570;28;20383;-69
2022/07/16 07:10:10;;;;;;;0.10;0.10;;;;;;;;;;5072692;28;20205;-68
2022/07/16 07:12:36;;;;;;;0.03;0.03;;;;;;;;;;5082036;28;20210;-68
2022/07/16 07:15:03;;;;;;;0.00;0.00;;;;;;;;;;5082978;28;20231;-69
2022/07/16 07:17:30;;;;;;;0.00;0.00;;;;;;;;;;5071512;28;20243;-69
2022/07/16 07:19:56;;;;;;;0.10;0.10;;;;;;;;;;5083205;28;20487;-68
2022/07/16 07:22:23;;;;;;;0.10;0.10;;;;;;;;;;5071331;28;20241;-68
2022/07/16 07:24:51;;;;;;;0.10;0.10;;;;;;;;;;5083156;28;20203;-67
2022/07/16 07:27:18;;;;;;;0.00;0.00;;;;;;;;;;5071270;28;20243;-68
2022/07/16 07:29:44;;;;;;;0.10;0.10;;;;;;;;;;5083140;28;20203;-68
2022/07/16 07:32:11;;;;;;;0.10;0.10;;;;;;;;;;5071188;28;20239;-69
2022/07/16 07:34:37;;;;;;;0.00;0.00;;;;;;;;;;5082935;28;20203;-68
2022/07/16 07:37:04;;;;;;;0.10;0.10;;;;;;;;;;5071092;28;20485;-68
2022/07/16 07:39:30;;;;;;;0.00;0.00;;;;;;;;;;5082570;28;20215;-68
2022/07/16 07:41:58;;;;;;;0.00;0.00;;;;;;;;;;5071207;28;20240;-69
2022/07/16 07:44:25;;;;;;;0.03;0.03;;;;;;;;;;5082564;28;20214;-68
2022/07/16 07:46:52;;;;;;;0.00;0.00;;;;;;;;;;5071307;28;20310;-68
2022/07/16 07:49:18;;;;;;;0.03;0.03;;;;;;;;;;5082628;28;20203;-68
2022/07/16 07:51:45;;;;;;;0.07;0.07;;;;;;;;;;5071218;28;20562;-69
2022/07/16 07:54:11;;;;;;;0.10;0.10;;;;;;;;;;5082212;28;20204;-69
2022/07/16 07:56:38;;;;;;;0.03;0.03;;;;;;;;;;5070461;28;20456;-68
2022/07/16 07:59:05;;;;;;;0.00;0.00;;;;;;;;;;5082454;28;20204;-69
2022/07/16 08:01:32;;;;;;;0.10;0.10;;;;;;;;;;5071298;28;20235;-68
2022/07/16 08:03:58;;;;;;;0.10;0.10;;;;;;;;;;5081982;28;20203;-69
2022/07/16 08:06:24;;;;;;;0.00;0.00;;;;;;;;;;5071128;28;20277;-68
2022/07/16 08:08:51;;;;;;;0.00;0.00;;;;;;;;;;5082117;28;20271;-68
2022/07/16 08:11:17;;;;;;;0.00;0.00;;;;;;;;;;5071438;28;20286;-69
2022/07/16 08:13:44;;;;;;;0.10;0.10;;;;;;;;;;5082071;28;20203;-68
2022/07/16 08:16:11;;;;;;;0.00;0.00;;;;;;;;;;5070865;28;20239;-69
2022/07/16 08:18:38;;;;;;;0.03;0.03;;;;;;;;;;5081695;28;20283;-68
2022/07/16 08:21:04;;;;;;;0.10;0.10;;;;;;;;;;5071286;28;20253;-67
2022/07/16 08:26:15;;;;;;;0.03;0.03;;;;;;;;;;5071287;28;20451;-68
2022/07/16 08:28:42;;;;;;;0.05;0.05;;;;;;;;;;5081948;28;20203;-68
2022/07/16 08:31:09;;;;;;;0.10;0.10;;;;;;;;;;5070834;28;20235;-68
2022/07/16 08:33:37;;;;;;;0.10;0.10;;;;;;;;;;5081739;28;20209;-68
2022/07/16 08:36:04;;;;;;;0.10;0.10;;;;;;;;;;5071378;28;20331;-68
2022/07/16 08:38:31;;;;;;;0.00;0.00;;;;;;;;;;5081785;28;20205;-68
2022/07/16 08:40:57;;;;;;;0.05;0.05;;;;;;;;;;5071261;28;20605;-69
2022/07/16 08:43:24;;;;;;;0.10;0.10;;;;;;;;;;5081622;28;20204;-68
2022/07/16 08:45:51;;;;;;;0.10;0.10;;;;;;;;;;5071505;28;20239;-69
2022/07/16 08:48:17;;;;;;;0.10;0.10;;;;;;;;;;5081321;28;20204;-68
2022/07/16 08:50:46;;;;;;;0.05;0.05;;;;;;;;;;5071226;28;20262;-69
2022/07/16 08:53:12;;;;;;;0.00;0.00;;;;;;;;;;5081978;28;20208;-68
2022/07/16 08:55:41;;;;;;;0.00;0.00;;;;;;;;;;5072003;28;20235;-68
2022/07/16 08:58:09;;;;;;;0.10;0.10;;;;;;;;;;5081247;28;20488;-68
2022/07/16 09:00:35;;;;;;;0.10;0.10;;;;;;;;;;5071107;28;20251;-69
2022/07/16 09:03:02;;;;;;;0.00;0.00;;;;;;;;;;5081306;28;20224;-69
2022/07/16 09:05:28;;;;;;;0.10;0.10;;;;;;;;;;5071371;28;20307;-68
2022/07/16 09:07:56;;;;;;;0.10;0.10;;;;;;;;;;5082817;28;20386;-69
2022/07/16 09:10:33;;;;;;;0.10;0.10;;;;;;;;;;5075359;28;20206;-70
2022/07/16 09:12:59;;;;;;;0.08;0.08;;;;;;;;;;5084844;28;20386;-69
2022/07/16 09:15:27;;;;;;;0.00;0.00;;;;;;;;;;5075077;28;20247;-75
2022/07/16 09:18:14;;;;;;;0.10;0.10;;;;;;;;;;5084456;28;20236;-72
2022/07/16 09:20:43;;;;;;;0.00;0.00;;;;;;;;;;5075022;28;20275;-71
2022/07/16 09:23:24;;;;;;;0.10;0.10;;;;;;;;;;5084343;28;20425;-74
2022/07/16 09:25:53;;;;;;;0.08;0.08;;;;;;;;;;5072351;28;20253;-70
2022/07/16 09:28:19;;;;;;;0.10;0.10;;;;;;;;;;5084857;28;20575;-72
2022/07/16 09:30:46;;;;;;;0.00;0.00;;;;;;;;;;5074830;28;20237;-73
2022/07/16 09:33:13;;;;;;;0.00;0.00;;;;;;;;;;5084329;28;20431;-75
2022/07/16 09:35:40;;;;;;;0.00;0.00;;;;;;;;;;5074262;28;20305;-74
2022/07/16 09:38:09;;;;;;;0.10;0.10;;;;;;;;;;5084416;28;20225;-77
2022/07/16 09:40:36;;;;;;;0.00;0.00;;;;;;;;;;5074244;28;20317;-77
2022/07/16 09:43:05;;;;;;;0.00;0.00;;;;;;;;;;5084126;28;20283;-75
2022/07/16 09:45:32;;;;;;;0.10;0.10;;;;;;;;;;5074130;28;20239;-75
2022/07/16 09:47:59;;;;;;;0.10;0.10;;;;;;;;;;5084180;28;20503;-78
2022/07/16 09:50:35;;;;;;;0.00;0.00;;;;;;;;;;5074334;28;20245;-78
2022/07/16 09:53:13;;;;;;;0.00;0.00;;;;;;;;;;5067134;28;20223;-81
2022/07/16 09:55:53;;;;;;;0.00;0.00;;;;;;;;;;5074234;28;20246;-80
2022/07/16 09:58:21;;;;;;;0.10;0.10;;;;;;;;;;5084387;28;20415;-80
2022/07/16 10:00:48;;;;;;;0.00;0.00;;;;;;;;;;5074327;28;20495;-77
2022/07/16 10:03:15;;;;;;;0.00;0.00;;;;;;;;;;5084523;28;20300;-75
2022/07/16 10:05:41;;;;;;;0.10;0.10;;;;;;;;;;5073929;28;20248;-68
2022/07/16 10:08:07;;;;;;;0.00;0.00;;;;;;;;;;5083769;28;20358;-73
2022/07/16 10:10:34;;;;;;;0.00;0.00;;;;;;;;;;5073730;28;20312;-68
2022/07/16 10:13:00;;;;;;;0.00;0.00;;;;;;;;;;5083808;28;20382;-69
2022/07/16 10:15:28;;;;;;;0.00;0.00;;;;;;;;;;5073615;28;20310;-70
2022/07/16 10:17:54;;;;;;;0.08;0.08;;;;;;;;;;5083418;28;20441;-69
2022/07/16 10:20:21;;;;;;;0.03;0.03;;;;;;;;;;5072797;28;20213;-68
2022/07/16 10:22:48;;;;;;;0.10;0.10;;;;;;;;;;5083631;28;20276;-71
2022/07/16 10:25:16;;;;;;;0.00;0.00;;;;;;;;;;5073720;28;20225;-69
2022/07/16 10:27:43;;;;;;;0.00;0.00;;;;;;;;;;5083157;28;20445;-70
2022/07/16 10:30:14;;;;;;;0.00;0.00;;;;;;;;;;5074218;28;20214;-70
2022/07/16 10:32:59;;;;;;;0.10;0.10;;;;;;;;;;5083263;28;20260;-69
2022/07/16 10:35:31;;;;;;;0.10;0.10;;;;;;;;;;5073070;28;20367;-69
2022/07/16 10:38:05;;;;;;;0.00;0.00;;;;;;;;;;5083126;28;20248;-69
2022/07/16 10:40:31;;;;;;;0.00;0.00;;;;;;;;;;5072914;28;20261;-69
2022/07/16 10:43:09;;;;;;;0.00;0.00;;;;;;;;;;5082807;28;20234;-70
2022/07/16 10:45:48;;;;;;;0.00;0.00;;;;;;;;;;5072850;28;20292;-70
2022/07/16 10:48:15;;;;;;;0.00;0.00;;;;;;;;;;5082878;28;20237;-69
2022/07/16 10:51:03;;;;;;;0.00;0.00;;;;;;;;;;5072943;28;20266;-69
2022/07/16 10:53:29;;;;;;;0.00;0.00;;;;;;;;;;5082683;28;20218;-69
2022/07/16 10:55:55;;;;;;;0.00;0.00;;;;;;;;;;5072331;28;20285;-69
2022/07/16 10:58:26;;;;;;;0.00;0.00;;;;;;;;;;5082696;28;20513;-70
2022/07/16 11:00:53;;;;;;;0.00;0.00;;;;;;;;;;5072463;28;20238;-69
2022/07/16 11:03:23;;;;;;;0.00;0.00;;;;;;;;;;5082674;28;20494;-69
2022/07/16 11:05:54;;;;;;;0.10;0.10;;;;;;;;;;5072372;28;20411;-69
2022/07/16 11:08:20;;;;;;;0.00;0.00;;;;;;;;;;5082690;28;20398;-69
2022/07/16 11:10:49;;;;;;;0.08;0.08;;;;;;;;;;5071945;28;20367;-69
2022/07/16 11:13:16;;;;;;;0.08;0.08;;;;;;;;;;5082260;28;20203;-69
2022/07/16 11:15:42;;;;;;;0.00;0.00;;;;;;;;;;5072072;28;20246;-69
2022/07/16 11:18:15;;;;;;;0.00;0.00;;;;;;;;;;5082226;28;20395;-70
2022/07/16 11:20:42;;;;;;;0.00;0.00;;;;;;;;;;5072068;28;20325;-70
2022/07/16 11:23:11;;;;;;;0.00;0.00;;;;;;;;;;5082139;28;20203;-70
2022/07/16 11:25:52;;;;;;;0.08;0.08;;;;;;;;;;5072122;28;20246;-70
2022/07/16 11:28:19;;;;;;;0.10;0.10;;;;;;;;;;5082053;28;20215;-71
2022/07/16 11:30:59;;;;;;;0.00;0.00;;;;;;;;;;5072090;28;20541;-71
2022/07/16 11:33:31;;;;;;;0.00;0.00;;;;;;;;;;5082135;28;20203;-70
2022/07/16 11:36:03;;;;;;;0.00;0.00;;;;;;;;;;5071744;28;20317;-70
2022/07/16 11:38:30;;;;;;;0.00;0.00;;;;;;;;;;5082090;28;20214;-70
2022/07/16 11:40:57;;;;;;;0.00;0.00;;;;;;;;;;5071501;28;20238;-69
2022/07/16 11:43:27;;;;;;;0.00;0.00;;;;;;;;;;5081663;28;20209;-70
2022/07/16 11:45:54;;;;;;;0.00;0.00;;;;;;;;;;5071673;28;20259;-69
2022/07/16 11:48:20;;;;;;;0.00;0.00;;;;;;;;;;5081662;28;20270;-69
2022/07/16 11:50:47;;;;;;;0.00;0.00;;;;;;;;;;5071647;28;20250;-69
2022/07/16 11:53:13;;;;;;;0.10;0.10;;;;;;;;;;5081670;28;20352;-70
2022/07/16 11:55:43;;;;;;;0.00;0.00;;;;;;;;;;5071516;28;20243;-69
2022/07/16 11:58:11;;;;;;;0.00;0.00;;;;;;;;;;5081595;28;20305;-69
2022/07/16 12:00:43;;;;;;;0.00;0.00;;;;;;;;;;5071701;28;20250;-69
2022/07/16 12:03:10;;;;;;;0.10;0.10;;;;;;;;;;5081453;28;20229;-68
2022/07/16 12:05:37;;;;;;;0.00;0.00;;;;;;;;;;5071775;28;20292;-68
2022/07/16 12:08:04;;;;;;;0.10;0.10;;;;;;;;;;5081642;28;20302;-70
2022/07/16 12:10:30;;;;;;;0.05;0.05;;;;;;;;;;5071434;28;20241;-70
2022/07/16 12:13:04;;;;;;;0.10;0.10;;;;;;;;;;5081447;28;20215;-70
2022/07/16 12:15:30;;;;;;;0.10;0.10;;;;;;;;;;5071317;28;20308;-72
2022/07/16 12:18:11;;;;;;;0.10;0.10;;;;;;;;;;5081220;28;20297;-69
2022/07/16 12:20:37;;;;;;;0.00;0.00;;;;;;;;;;5071406;28;20242;-69
2022/07/16 12:23:05;;;;;;;0.00;0.00;;;;;;;;;;5080891;28;20211;-72
2022/07/16 12:25:34;;;;;;;0.00;0.00;;;;;;;;;;5071505;28;20264;-70
2022/07/16 12:28:01;;;;;;;0.00;0.00;;;;;;;;;;5081057;28;20203;-70
2022/07/16 12:30:33;;;;;;;0.00;0.00;;;;;;;;;;5071334;28;20305;-70
2022/07/16 12:33:00;;;;;;;0.00;0.00;;;;;;;;;;5081202;28;20245;-71
2022/07/16 12:35:46;;;;;;;0.00;0.00;;;;;;;;;;5071291;28;20253;-68
2022/07/16 12:38:32;;;;;;;0.20;0.20;;;;;;;;;;5080822;28;20230;-70
2022/07/16 12:40:58;;;;;;;0.10;0.10;;;;;;;;;;5070655;28;20497;-71
2022/07/16 12:43:24;;;;;;;0.08;0.08;;;;;;;;;;5084292;28;20412;-69
2022/07/16 12:45:52;;;;;;;0.00;0.00;;;;;;;;;;5074833;28;20250;-71
2022/07/16 12:48:19;;;;;;;0.10;0.10;;;;;;;;;;5085076;28;20325;-71
2022/07/16 12:50:45;;;;;;;0.00;0.00;;;;;;;;;;5074939;28;20245;-70
2022/07/16 12:53:11;;;;;;;0.00;0.00;;;;;;;;;;5085345;28;20204;-70
2022/07/16 13:01:07;;;;;;;0.00;0.00;;;;;;;;;;5074859;28;20247;-71
2022/07/16 13:03:33;;;;;;;0.00;0.00;;;;;;;;;;5085031;28;20210;-70
2022/07/16 13:06:00;;;;;;;0.00;0.00;;;;;;;;;;5074490;28;20269;-69
2022/07/16 13:08:26;;;;;;;0.00;0.00;;;;;;;;;;5084851;28;20210;-70
2022/07/16 13:10:53;;;;;;;0.00;0.00;;;;;;;;;;5074533;28;20240;-71
2022/07/16 13:13:19;;;;;;;0.10;0.10;;;;;;;;;;5084808;28;20204;-70
2022/07/16 13:15:45;;;;;;;0.10;0.10;;;;;;;;;;5074764;28;20249;-70
2022/07/16 13:18:13;;;;;;;0.03;0.03;;;;;;;;;;5084590;28;20239;-70
2022/07/16 13:20:40;;;;;;;0.00;0.00;;;;;;;;;;5074823;28;20248;-69
2022/07/16 13:23:06;;;;;;;0.05;0.05;;;;;;;;;;5084467;28;20501;-70
2022/07/16 13:25:32;;;;;;;0.00;0.00;;;;;;;;;;5074546;28;20242;-70
2022/07/16 13:27:59;;;;;;;0.10;0.10;;;;;;;;;;5084510;28;20269;-70
2022/07/16 13:30:25;;;;;;;0.00;0.00;;;;;;;;;;5074970;28;20296;-70
2022/07/16 13:32:51;;;;;;;0.03;0.03;;;;;;;;;;5084273;28;20387;-70
2022/07/16 13:35:19;;;;;;;0.10;0.10;;;;;;;;;;5074857;28;20205;-70
2022/07/16 13:37:46;;;;;;;0.00;0.00;;;;;;;;;;5083993;28;20234;-71
2022/07/16 13:40:12;;;;;;;0.00;0.00;;;;;;;;;;5074471;28;20211;-70
2022/07/16 13:42:39;;;;;;;0.00;0.00;;;;;;;;;;5083920;28;20207;-69
2022/07/16 13:45:08;;;;;;;0.00;0.00;;;;;;;;;;5079154;28;20227;-69
2022/07/16 13:47:35;;;;;;;0.00;0.00;;;;;;;;;;5084063;28;20265;-70
2022/07/16 13:50:02;;;;;;;0.00;0.00;;;;;;;;;;5085035;28;20207;-70
2022/07/16 13:52:29;;;;;;;0.00;0.00;;;;;;;;;;5073398;28;20261;-69
2022/07/16 13:54:56;;;;;;;0.00;0.00;;;;;;;;;;5083476;28;20271;-68
2022/07/16 14:00:07;;;;;;;0.00;0.00;;;;;;;;;;5074503;28;20193;-71
2022/07/16 14:02:33;;;;;;;0.10;0.10;;;;;;;;;;5083751;28;20322;-70
2022/07/16 14:05:00;;;;;;;0.00;0.00;;;;;;;;;;5085006;28;20267;-72
2022/07/16 14:07:26;;;;;;;0.10;0.10;;;;;;;;;;5073102;28;20262;-69
2022/07/16 14:09:54;;;;;;;0.00;0.00;;;;;;;;;;5084415;28;20213;-69
2022/07/16 14:12:20;;;;;;;0.00;0.00;;;;;;;;;;5072925;28;20298;-70
2022/07/16 14:14:46;;;;;;;0.00;0.00;;;;;;;;;;5084630;28;20241;-70
2022/07/16 14:17:13;;;;;;;0.10;0.10;;;;;;;;;;5072630;28;20265;-71
2022/07/16 14:19:39;;;;;;;0.00;0.00;;;;;;;;;;5084192;28;20274;-70
2022/07/16 14:22:06;;;;;;;0.10;0.10;;;;;;;;;;5072748;28;20239;-70
2022/07/16 14:24:32;;;;;;;0.00;0.00;;;;;;;;;;5084479;28;20294;-70
2022/07/16 14:27:00;;;;;;;0.00;0.00;;;;;;;;;;5072662;28;20246;-71
2022/07/16 14:29:28;;;;;;;0.00;0.00;;;;;;;;;;5084349;28;20226;-74
2022/07/16 14:31:54;;;;;;;0.00;0.00;;;;;;;;;;5072649;28;20283;-75
2022/07/16 14:34:20;;;;;;;0.00;0.00;;;;;;;;;;5083881;28;20294;-72
2022/07/16 14:36:47;;;;;;;0.00;0.00;;;;;;;;;;5072602;28;20244;-74
2022/07/16 14:39:13;;;;;;;0.00;0.00;;;;;;;;;;5083605;28;20207;-72
2022/07/16 14:41:40;;;;;;;0.00;0.00;;;;;;;;;;5072408;28;20262;-73
2022/07/16 14:44:08;;;;;;;0.00;0.00;;;;;;;;;;5083658;28;20221;-72
2022/07/16 14:46:34;;;;;;;0.00;0.00;;;;;;;;;;5072265;28;20246;-72
2022/07/16 14:49:01;;;;;;;0.00;0.00;;;;;;;;;;5083103;28;20202;-71
2022/07/16 14:51:27;;;;;;;0.00;0.00;;;;;;;;;;5072276;28;20640;-71
2022/07/16 14:53:53;;;;;;;0.10;0.10;;;;;;;;;;5082957;28;20277;-72
2022/07/16 14:56:20;;;;;;;0.00;0.00;;;;;;;;;;5072130;28;20325;-72